Alton, IL

03:27 AM CDT am 02. September 2015 (GMT -0500)
Alton Amtrak | | Change Station
CLOSE
Current Station
Persönliche Wetterstationen
Location: Alton, IL
Höhe: 489 ft
Wetterstationen in der Umgebung

Höhe 489 ft 38.91 °N, 90.14 °W | Updated 3 seconds ago

Heiter
Heiter
70.5 °F
gefühlte 70.5 °F
N
0.0
Wind Wechselnd Wind aus Nord-Nordwest
Gusts 0.0 mph

Heute
Max. -- | schwach -- °F
--% Regenrisiko
Gestern
Max. -- | schwach -- °F
Precip. -- inch
6:30 AM 7:29 PM
Drittes Viertel, 82% visible
Druck 30.06 inch
Sichtweite 10.0 Meilen
Wolken Heiter
Taupunkt 70 °F
Feuchtigkeit 98%
Regen 0.00 inch
Schneehöhe Nicht verfügbar..
UV 0 von 12
Pollen 11.00 von 12
Luftqualität Nicht verfügbar..
Flu Activity Nicht verfügbar..
METAR KALN 020815Z AUTO 00000KT 10SM CLR 21/20 A3006 RMK AO2 T02140203
Druck 30.06 inch
Sichtweite 10.0 Meilen
Wolken Heiter
Taupunkt 70 °F
Feuchtigkeit 98%
Regen 0.00 inch
Schneehöhe Nicht verfügbar..
UV 0 von 12
Pollen 11.00 von 12
Luftqualität Nicht verfügbar..
Flu Activity Nicht verfügbar..
METAR KALN 020815Z AUTO 00000KT 10SM CLR 21/20 A3006 RMK AO2 T02140203

10-Day Weather Forecast

×

Almanac

Astronomie

Sep. 02, 2015 Aufgang Untergang
Genaue Zeit
Bürgerliche Dämmerung
Nautische Dämmerung
Astronomische Dämmerung
Mond
Länge des sichtbaren Lichts
Tageslänge
Tomorrow will be .
, % of the Moon is Illuminated

Heutige Rekorde

State Highs State Lows

Community

WunderPhotos

Upload Photos

1,851,728 Fotos hochgeladen!

WunderBlogs® & News

Nearby

Luftqualität

  Luftqualität LQ Index Schadstoff
Not available.

Schneehöhe

Station Depth Höhe

Erdbebenaktivität

Stadt Distance Mag. Time & Date
Minimum magnitude displayed is 2.5.

küstennahe Wassertemperaturen

Ort Temperatur

Stations

Wetterstationen in der Umgebung

Stationsstandort Temp. Windchill Taupunkt Feuchtigkeit Wind Precip. Höhe Aktualisiert Art